sensor_id;sensor_type;location;lat;lon;timestamp;P1;durP1;ratioP1;P2;durP2;ratioP2
69956;SDS011;57283;54.816;9.482;2022-11-04T00:01:36;4.10;;;1.90;;
69956;SDS011;57283;54.816;9.482;2022-11-04T00:04:05;6.60;;;1.70;;
69956;SDS011;57283;54.816;9.482;2022-11-04T00:06:34;5.43;;;1.90;;
69956;SDS011;57283;54.816;9.482;2022-11-04T00:09:04;6.50;;;1.97;;
69956;SDS011;57283;54.816;9.482;2022-11-04T00:11:33;4.50;;;1.85;;
69956;SDS011;57283;54.816;9.482;2022-11-04T00:14:19;5.45;;;1.88;;
69956;SDS011;57283;54.816;9.482;2022-11-04T00:16:47;6.10;;;2.05;;
69956;SDS011;57283;54.816;9.482;2022-11-04T00:19:32;6.72;;;2.10;;
69956;SDS011;57283;54.816;9.482;2022-11-04T00:22:14;4.30;;;1.50;;
69956;SDS011;57283;54.816;9.482;2022-11-04T00:25:01;6.78;;;2.10;;
69956;SDS011;57283;54.816;9.482;2022-11-04T00:27:46;5.05;;;2.05;;
69956;SDS011;57283;54.816;9.482;2022-11-04T00:30:32;5.57;;;2.00;;
69956;SDS011;57283;54.816;9.482;2022-11-04T00:32:59;8.00;;;2.28;;
69956;SDS011;57283;54.816;9.482;2022-11-04T00:35:47;6.63;;;2.03;;
69956;SDS011;57283;54.816;9.482;2022-11-04T00:38:15;5.30;;;2.20;;
69956;SDS011;57283;54.816;9.482;2022-11-04T00:40:44;5.57;;;2.58;;
69956;SDS011;57283;54.816;9.482;2022-11-04T00:43:12;5.80;;;1.83;;
69956;SDS011;57283;54.816;9.482;2022-11-04T00:45:40;5.07;;;1.70;;
69956;SDS011;57283;54.816;9.482;2022-11-04T00:48:08;4.47;;;2.03;;
69956;SDS011;57283;54.816;9.482;2022-11-04T00:50:36;6.22;;;2.05;;
69956;SDS011;57283;54.816;9.482;2022-11-04T00:53:04;5.80;;;2.17;;
69956;SDS011;57283;54.816;9.482;2022-11-04T00:55:33;6.40;;;2.35;;
69956;SDS011;57283;54.816;9.482;2022-11-04T00:58:02;5.90;;;2.42;;
69956;SDS011;57283;54.816;9.482;2022-11-04T01:00:29;5.43;;;2.10;;
69956;SDS011;57283;54.816;9.482;2022-11-04T01:02:57;5.30;;;2.58;;
69956;SDS011;57283;54.816;9.482;2022-11-04T01:05:26;5.85;;;2.13;;
69956;SDS011;57283;54.816;9.482;2022-11-04T01:07:53;5.22;;;2.03;;
69956;SDS011;57283;54.816;9.482;2022-11-04T01:10:23;5.65;;;2.30;;
69956;SDS011;57283;54.816;9.482;2022-11-04T01:12:51;5.97;;;2.10;;
69956;SDS011;57283;54.816;9.482;2022-11-04T01:15:20;6.60;;;2.47;;
69956;SDS011;57283;54.816;9.482;2022-11-04T01:17:48;4.55;;;2.10;;
69956;SDS011;57283;54.816;9.482;2022-11-04T01:20:16;5.28;;;2.15;;
69956;SDS011;57283;54.816;9.482;2022-11-04T01:22:43;5.55;;;2.25;;
69956;SDS011;57283;54.816;9.482;2022-11-04T01:25:11;6.60;;;2.37;;
69956;SDS011;57283;54.816;9.482;2022-11-04T01:27:39;4.43;;;1.80;;
69956;SDS011;57283;54.816;9.482;2022-11-04T01:30:07;7.57;;;2.20;;
69956;SDS011;57283;54.816;9.482;2022-11-04T01:32:37;5.55;;;2.30;;
69956;SDS011;57283;54.816;9.482;2022-11-04T01:35:05;5.70;;;2.28;;
69956;SDS011;57283;54.816;9.482;2022-11-04T01:37:34;7.20;;;2.20;;
69956;SDS011;57283;54.816;9.482;2022-11-04T01:40:02;4.53;;;1.92;;
69956;SDS011;57283;54.816;9.482;2022-11-04T01:42:30;7.00;;;2.10;;
69956;SDS011;57283;54.816;9.482;2022-11-04T01:44:58;6.90;;;2.15;;
69956;SDS011;57283;54.816;9.482;2022-11-04T01:47:31;6.45;;;2.42;;
69956;SDS011;57283;54.816;9.482;2022-11-04T01:50:05;10.93;;;2.40;;
69956;SDS011;57283;54.816;9.482;2022-11-04T01:52:36;7.35;;;2.33;;
69956;SDS011;57283;54.816;9.482;2022-11-04T01:55:13;5.28;;;2.22;;
69956;SDS011;57283;54.816;9.482;2022-11-04T01:57:45;5.53;;;2.10;;
69956;SDS011;57283;54.816;9.482;2022-11-04T02:00:15;5.80;;;1.90;;
69956;SDS011;57283;54.816;9.482;2022-11-04T02:02:47;7.03;;;2.80;;
69956;SDS011;57283;54.816;9.482;2022-11-04T02:05:21;6.40;;;2.33;;
69956;SDS011;57283;54.816;9.482;2022-11-04T02:07:49;4.10;;;2.03;;
69956;SDS011;57283;54.816;9.482;2022-11-04T02:10:21;5.70;;;2.22;;
69956;SDS011;57283;54.816;9.482;2022-11-04T02:12:51;6.82;;;2.50;;
69956;SDS011;57283;54.816;9.482;2022-11-04T02:15:20;8.03;;;2.67;;
69956;SDS011;57283;54.816;9.482;2022-11-04T02:18:06;6.93;;;2.55;;
69956;SDS011;57283;54.816;9.482;2022-11-04T02:20:58;5.60;;;2.63;;
69956;SDS011;57283;54.816;9.482;2022-11-04T02:23:57;5.40;;;2.15;;
69956;SDS011;57283;54.816;9.482;2022-11-04T02:26:59;5.22;;;2.22;;
69956;SDS011;57283;54.816;9.482;2022-11-04T02:32:33;6.93;;;2.22;;
69956;SDS011;57283;54.816;9.482;2022-11-04T02:35:21;5.68;;;2.50;;
69956;SDS011;57283;54.816;9.482;2022-11-04T02:37:53;6.97;;;2.53;;
69956;SDS011;57283;54.816;9.482;2022-11-04T02:40:31;5.50;;;2.10;;
69956;SDS011;57283;54.816;9.482;2022-11-04T02:43:05;7.80;;;2.20;;
69956;SDS011;57283;54.816;9.482;2022-11-04T02:45:41;6.43;;;2.35;;
69956;SDS011;57283;54.816;9.482;2022-11-04T02:48:13;6.45;;;2.80;;
69956;SDS011;57283;54.816;9.482;2022-11-04T02:50:48;5.20;;;2.53;;
69956;SDS011;57283;54.816;9.482;2022-11-04T02:53:20;6.47;;;2.78;;
69956;SDS011;57283;54.816;9.482;2022-11-04T02:55:54;7.63;;;2.57;;
69956;SDS011;57283;54.816;9.482;2022-11-04T02:58:26;5.63;;;2.45;;
69956;SDS011;57283;54.816;9.482;2022-11-04T03:01:01;5.45;;;2.63;;
69956;SDS011;57283;54.816;9.482;2022-11-04T03:03:32;6.13;;;2.88;;
69956;SDS011;57283;54.816;9.482;2022-11-04T03:06:04;4.97;;;2.25;;
69956;SDS011;57283;54.816;9.482;2022-11-04T03:08:37;7.63;;;3.13;;
69956;SDS011;57283;54.816;9.482;2022-11-04T03:11:09;6.60;;;2.35;;
69956;SDS011;57283;54.816;9.482;2022-11-04T03:13:40;7.03;;;2.72;;
69956;SDS011;57283;54.816;9.482;2022-11-04T03:16:16;6.85;;;2.40;;
69956;SDS011;57283;54.816;9.482;2022-11-04T03:18:48;5.80;;;2.72;;
69956;SDS011;57283;54.816;9.482;2022-11-04T03:21:24;6.37;;;3.43;;
69956;SDS011;57283;54.816;9.482;2022-11-04T03:23:54;5.90;;;2.97;;
69956;SDS011;57283;54.816;9.482;2022-11-04T03:26:22;8.68;;;3.20;;
69956;SDS011;57283;54.816;9.482;2022-11-04T03:29:01;8.43;;;3.63;;
69956;SDS011;57283;54.816;9.482;2022-11-04T03:31:44;7.25;;;2.78;;
69956;SDS011;57283;54.816;9.482;2022-11-04T03:34:20;8.17;;;3.30;;
69956;SDS011;57283;54.816;9.482;2022-11-04T03:36:48;6.97;;;3.17;;
69956;SDS011;57283;54.816;9.482;2022-11-04T03:39:16;7.18;;;3.25;;
69956;SDS011;57283;54.816;9.482;2022-11-04T03:41:45;6.15;;;2.95;;
69956;SDS011;57283;54.816;9.482;2022-11-04T03:44:16;5.85;;;2.95;;
69956;SDS011;57283;54.816;9.482;2022-11-04T03:46:48;7.37;;;3.10;;
69956;SDS011;57283;54.816;9.482;2022-11-04T03:49:18;6.82;;;3.28;;
69956;SDS011;57283;54.816;9.482;2022-11-04T03:51:47;7.55;;;3.53;;
69956;SDS011;57283;54.816;9.482;2022-11-04T03:54:15;7.50;;;3.90;;
69956;SDS011;57283;54.816;9.482;2022-11-04T03:56:48;7.00;;;3.40;;
69956;SDS011;57283;54.816;9.482;2022-11-04T03:59:32;7.47;;;3.20;;
69956;SDS011;57283;54.816;9.482;2022-11-04T04:02:24;6.25;;;3.13;;
69956;SDS011;57283;54.816;9.482;2022-11-04T04:05:00;9.50;;;3.85;;
69956;SDS011;57283;54.816;9.482;2022-11-04T04:07:33;7.50;;;3.35;;
69956;SDS011;57283;54.816;9.482;2022-11-04T04:10:06;7.97;;;3.53;;
69956;SDS011;57283;54.816;9.482;2022-11-04T04:12:54;9.27;;;3.73;;
69956;SDS011;57283;54.816;9.482;2022-11-04T04:15:26;10.63;;;4.10;;
69956;SDS011;57283;54.816;9.482;2022-11-04T04:17:59;7.65;;;3.42;;
69956;SDS011;57283;54.816;9.482;2022-11-04T04:20:30;8.75;;;4.00;;
69956;SDS011;57283;54.816;9.482;2022-11-04T04:23:02;10.02;;;3.83;;
69956;SDS011;57283;54.816;9.482;2022-11-04T04:25:54;6.80;;;3.20;;
69956;SDS011;57283;54.816;9.482;2022-11-04T04:28:41;7.60;;;3.42;;
69956;SDS011;57283;54.816;9.482;2022-11-04T04:31:12;7.47;;;3.78;;
69956;SDS011;57283;54.816;9.482;2022-11-04T04:34:04;9.27;;;4.40;;
69956;SDS011;57283;54.816;9.482;2022-11-04T04:36:36;7.90;;;3.45;;
69956;SDS011;57283;54.816;9.482;2022-11-04T04:39:10;7.83;;;3.57;;
69956;SDS011;57283;54.816;9.482;2022-11-04T04:41:58;7.90;;;4.25;;
69956;SDS011;57283;54.816;9.482;2022-11-04T04:44:43;8.65;;;4.18;;
69956;SDS011;57283;54.816;9.482;2022-11-04T04:47:30;9.45;;;4.40;;
69956;SDS011;57283;54.816;9.482;2022-11-04T04:50:04;10.40;;;4.22;;
69956;SDS011;57283;54.816;9.482;2022-11-04T04:52:33;8.47;;;3.97;;
69956;SDS011;57283;54.816;9.482;2022-11-04T04:55:05;8.32;;;4.15;;
69956;SDS011;57283;54.816;9.482;2022-11-04T04:57:34;8.00;;;4.15;;
69956;SDS011;57283;54.816;9.482;2022-11-04T05:00:02;7.32;;;3.40;;
69956;SDS011;57283;54.816;9.482;2022-11-04T05:02:32;8.77;;;4.57;;
69956;SDS011;57283;54.816;9.482;2022-11-04T05:05:00;9.00;;;4.40;;
69956;SDS011;57283;54.816;9.482;2022-11-04T05:07:29;8.77;;;3.97;;
69956;SDS011;57283;54.816;9.482;2022-11-04T05:09:57;9.35;;;4.20;;
69956;SDS011;57283;54.816;9.482;2022-11-04T05:12:25;10.05;;;4.85;;
69956;SDS011;57283;54.816;9.482;2022-11-04T05:15:13;12.10;;;4.38;;
69956;SDS011;57283;54.816;9.482;2022-11-04T05:17:41;9.30;;;3.53;;
69956;SDS011;57283;54.816;9.482;2022-11-04T05:20:09;7.03;;;3.38;;
69956;SDS011;57283;54.816;9.482;2022-11-04T05:22:39;10.10;;;4.07;;
69956;SDS011;57283;54.816;9.482;2022-11-04T05:25:07;8.93;;;4.18;;
69956;SDS011;57283;54.816;9.482;2022-11-04T05:27:35;10.50;;;4.25;;
69956;SDS011;57283;54.816;9.482;2022-11-04T05:30:03;7.23;;;3.63;;
69956;SDS011;57283;54.816;9.482;2022-11-04T05:32:31;10.90;;;4.60;;
69956;SDS011;57283;54.816;9.482;2022-11-04T05:34:59;7.28;;;3.90;;
69956;SDS011;57283;54.816;9.482;2022-11-04T05:37:27;8.35;;;4.50;;
69956;SDS011;57283;54.816;9.482;2022-11-04T05:39:56;9.63;;;4.47;;
69956;SDS011;57283;54.816;9.482;2022-11-04T05:42:23;10.93;;;5.27;;
69956;SDS011;57283;54.816;9.482;2022-11-04T05:44:51;9.18;;;4.15;;
69956;SDS011;57283;54.816;9.482;2022-11-04T05:47:19;10.48;;;4.03;;
69956;SDS011;57283;54.816;9.482;2022-11-04T05:49:46;11.93;;;4.25;;
69956;SDS011;57283;54.816;9.482;2022-11-04T05:52:14;9.82;;;4.20;;
69956;SDS011;57283;54.816;9.482;2022-11-04T05:54:42;10.17;;;4.50;;
69956;SDS011;57283;54.816;9.482;2022-11-04T05:57:11;9.07;;;3.90;;
69956;SDS011;57283;54.816;9.482;2022-11-04T05:59:39;9.98;;;4.32;;
69956;SDS011;57283;54.816;9.482;2022-11-04T06:02:06;9.07;;;4.13;;
69956;SDS011;57283;54.816;9.482;2022-11-04T06:04:35;11.35;;;4.30;;
69956;SDS011;57283;54.816;9.482;2022-11-04T06:07:03;7.57;;;3.70;;
69956;SDS011;57283;54.816;9.482;2022-11-04T06:09:30;7.97;;;4.20;;
69956;SDS011;57283;54.816;9.482;2022-11-04T06:12:08;8.90;;;4.82;;
69956;SDS011;57283;54.816;9.482;2022-11-04T06:14:38;8.15;;;4.22;;
69956;SDS011;57283;54.816;9.482;2022-11-04T06:17:07;7.15;;;3.50;;
69956;SDS011;57283;54.816;9.482;2022-11-04T06:19:43;7.00;;;3.33;;
69956;SDS011;57283;54.816;9.482;2022-11-04T06:22:11;7.05;;;3.60;;
69956;SDS011;57283;54.816;9.482;2022-11-04T06:24:39;6.05;;;3.10;;
69956;SDS011;57283;54.816;9.482;2022-11-04T06:27:07;6.00;;;2.72;;
69956;SDS011;57283;54.816;9.482;2022-11-04T06:29:36;6.85;;;3.05;;
69956;SDS011;57283;54.816;9.482;2022-11-04T06:32:08;5.87;;;2.30;;
69956;SDS011;57283;54.816;9.482;2022-11-04T06:34:36;5.13;;;2.10;;
69956;SDS011;57283;54.816;9.482;2022-11-04T06:37:04;4.15;;;1.70;;
69956;SDS011;57283;54.816;9.482;2022-11-04T06:39:32;5.13;;;1.70;;
69956;SDS011;57283;54.816;9.482;2022-11-04T06:42:00;3.88;;;1.38;;
69956;SDS011;57283;54.816;9.482;2022-11-04T06:44:28;3.37;;;1.40;;
69956;SDS011;57283;54.816;9.482;2022-11-04T06:46:56;4.20;;;1.20;;
69956;SDS011;57283;54.816;9.482;2022-11-04T06:49:25;3.90;;;1.08;;
69956;SDS011;57283;54.816;9.482;2022-11-04T06:51:53;3.60;;;1.20;;
69956;SDS011;57283;54.816;9.482;2022-11-04T06:54:21;4.28;;;1.42;;
69956;SDS011;57283;54.816;9.482;2022-11-04T06:56:49;4.67;;;1.30;;
69956;SDS011;57283;54.816;9.482;2022-11-04T06:59:17;3.50;;;1.25;;
69956;SDS011;57283;54.816;9.482;2022-11-04T07:01:48;3.20;;;1.10;;
69956;SDS011;57283;54.816;9.482;2022-11-04T07:04:17;3.25;;;1.02;;
69956;SDS011;57283;54.816;9.482;2022-11-04T07:06:46;3.78;;;1.30;;
69956;SDS011;57283;54.816;9.482;2022-11-04T07:09:14;3.90;;;1.00;;
69956;SDS011;57283;54.816;9.482;2022-11-04T07:11:43;2.75;;;0.80;;
69956;SDS011;57283;54.816;9.482;2022-11-04T07:14:11;4.03;;;0.82;;
69956;SDS011;57283;54.816;9.482;2022-11-04T07:16:39;2.65;;;0.88;;
69956;SDS011;57283;54.816;9.482;2022-11-04T07:19:07;3.10;;;0.80;;
69956;SDS011;57283;54.816;9.482;2022-11-04T07:21:35;6.63;;;1.33;;
69956;SDS011;57283;54.816;9.482;2022-11-04T07:24:04;3.33;;;0.90;;
69956;SDS011;57283;54.816;9.482;2022-11-04T07:26:33;5.82;;;0.90;;
69956;SDS011;57283;54.816;9.482;2022-11-04T07:29:00;2.85;;;0.70;;
69956;SDS011;57283;54.816;9.482;2022-11-04T07:31:28;3.38;;;0.80;;
69956;SDS011;57283;54.816;9.482;2022-11-04T07:33:56;3.57;;;0.73;;
69956;SDS011;57283;54.816;9.482;2022-11-04T07:36:23;2.63;;;0.80;;
69956;SDS011;57283;54.816;9.482;2022-11-04T07:38:51;2.90;;;0.80;;
69956;SDS011;57283;54.816;9.482;2022-11-04T07:41:20;2.33;;;0.50;;
69956;SDS011;57283;54.816;9.482;2022-11-04T07:43:49;3.05;;;0.70;;
69956;SDS011;57283;54.816;9.482;2022-11-04T07:46:18;4.37;;;0.80;;
69956;SDS011;57283;54.816;9.482;2022-11-04T07:48:46;3.28;;;0.68;;
69956;SDS011;57283;54.816;9.482;2022-11-04T07:51:15;3.53;;;0.70;;
69956;SDS011;57283;54.816;9.482;2022-11-04T07:53:45;3.38;;;0.68;;
69956;SDS011;57283;54.816;9.482;2022-11-04T07:56:13;2.75;;;0.70;;
69956;SDS011;57283;54.816;9.482;2022-11-04T07:58:43;3.93;;;0.77;;
69956;SDS011;57283;54.816;9.482;2022-11-04T08:01:11;2.72;;;0.70;;
69956;SDS011;57283;54.816;9.482;2022-11-04T08:03:41;2.67;;;0.57;;
69956;SDS011;57283;54.816;9.482;2022-11-04T08:06:10;2.00;;;0.50;;
69956;SDS011;57283;54.816;9.482;2022-11-04T08:08:39;3.65;;;0.85;;
69956;SDS011;57283;54.816;9.482;2022-11-04T08:11:09;4.07;;;0.70;;
69956;SDS011;57283;54.816;9.482;2022-11-04T08:13:44;3.83;;;0.70;;
69956;SDS011;57283;54.816;9.482;2022-11-04T08:16:13;4.50;;;0.80;;
69956;SDS011;57283;54.816;9.482;2022-11-04T08:18:43;4.00;;;1.08;;
69956;SDS011;57283;54.816;9.482;2022-11-04T08:21:12;5.15;;;0.80;;
69956;SDS011;57283;54.816;9.482;2022-11-04T08:23:40;2.80;;;0.73;;
69956;SDS011;57283;54.816;9.482;2022-11-04T08:26:08;7.22;;;1.58;;
69956;SDS011;57283;54.816;9.482;2022-11-04T08:28:37;4.22;;;0.90;;
69956;SDS011;57283;54.816;9.482;2022-11-04T08:31:06;3.88;;;0.80;;
69956;SDS011;57283;54.816;9.482;2022-11-04T08:33:35;4.95;;;1.00;;
69956;SDS011;57283;54.816;9.482;2022-11-04T08:36:04;3.83;;;0.70;;
69956;SDS011;57283;54.816;9.482;2022-11-04T08:38:34;4.13;;;1.00;;
69956;SDS011;57283;54.816;9.482;2022-11-04T08:41:03;3.90;;;1.08;;
69956;SDS011;57283;54.816;9.482;2022-11-04T08:43:32;4.50;;;0.88;;
69956;SDS011;57283;54.816;9.482;2022-11-04T08:46:00;5.88;;;1.00;;
69956;SDS011;57283;54.816;9.482;2022-11-04T08:48:30;5.63;;;1.33;;
69956;SDS011;57283;54.816;9.482;2022-11-04T08:50:58;7.40;;;0.90;;
69956;SDS011;57283;54.816;9.482;2022-11-04T08:53:25;5.93;;;1.30;;
69956;SDS011;57283;54.816;9.482;2022-11-04T08:55:53;4.38;;;0.82;;
69956;SDS011;57283;54.816;9.482;2022-11-04T08:58:21;6.82;;;1.00;;
69956;SDS011;57283;54.816;9.482;2022-11-04T09:00:50;6.67;;;1.10;;
69956;SDS011;57283;54.816;9.482;2022-11-04T09:03:18;6.15;;;1.00;;
69956;SDS011;57283;54.816;9.482;2022-11-04T09:05:47;4.20;;;0.95;;
69956;SDS011;57283;54.816;9.482;2022-11-04T09:08:16;4.10;;;0.90;;
69956;SDS011;57283;54.816;9.482;2022-11-04T09:10:45;6.03;;;1.33;;
69956;SDS011;57283;54.816;9.482;2022-11-04T09:13:14;4.07;;;0.90;;
69956;SDS011;57283;54.816;9.482;2022-11-04T09:15:42;4.40;;;0.80;;
69956;SDS011;57283;54.816;9.482;2022-11-04T09:18:10;5.32;;;1.23;;
69956;SDS011;57283;54.816;9.482;2022-11-04T09:20:38;5.35;;;0.88;;
69956;SDS011;57283;54.816;9.482;2022-11-04T09:23:08;4.78;;;0.90;;
69956;SDS011;57283;54.816;9.482;2022-11-04T09:25:37;5.67;;;1.10;;
69956;SDS011;57283;54.816;9.482;2022-11-04T09:28:05;4.30;;;1.00;;
69956;SDS011;57283;54.816;9.482;2022-11-04T09:30:32;4.88;;;0.98;;
69956;SDS011;57283;54.816;9.482;2022-11-04T09:33:00;4.25;;;1.00;;
69956;SDS011;57283;54.816;9.482;2022-11-04T09:35:28;6.63;;;1.10;;
69956;SDS011;57283;54.816;9.482;2022-11-04T09:37:57;5.27;;;1.53;;
69956;SDS011;57283;54.816;9.482;2022-11-04T09:40:27;6.57;;;1.08;;
69956;SDS011;57283;54.816;9.482;2022-11-04T09:43:02;5.53;;;1.17;;
69956;SDS011;57283;54.816;9.482;2022-11-04T09:45:38;4.60;;;1.30;;
69956;SDS011;57283;54.816;9.482;2022-11-04T09:48:10;3.53;;;1.00;;
69956;SDS011;57283;54.816;9.482;2022-11-04T09:50:43;5.53;;;1.57;;
69956;SDS011;57283;54.816;9.482;2022-11-04T09:53:15;4.85;;;1.33;;
69956;SDS011;57283;54.816;9.482;2022-11-04T09:55:48;4.85;;;1.10;;
69956;SDS011;57283;54.816;9.482;2022-11-04T09:58:20;6.30;;;1.00;;
69956;SDS011;57283;54.816;9.482;2022-11-04T10:00:53;5.60;;;1.02;;
69956;SDS011;57283;54.816;9.482;2022-11-04T10:03:34;4.50;;;1.17;;
69956;SDS011;57283;54.816;9.482;2022-11-04T10:06:24;5.93;;;1.05;;
69956;SDS011;57283;54.816;9.482;2022-11-04T10:09:03;4.90;;;1.08;;
69956;SDS011;57283;54.816;9.482;2022-11-04T10:11:46;5.95;;;1.10;;
69956;SDS011;57283;54.816;9.482;2022-11-04T10:14:25;4.15;;;1.20;;
69956;SDS011;57283;54.816;9.482;2022-11-04T10:17:17;7.13;;;1.40;;
69956;SDS011;57283;54.816;9.482;2022-11-04T10:20:16;3.92;;;1.02;;
69956;SDS011;57283;54.816;9.482;2022-11-04T10:22:54;5.97;;;1.10;;
69956;SDS011;57283;54.816;9.482;2022-11-04T10:25:24;5.55;;;1.35;;
69956;SDS011;57283;54.816;9.482;2022-11-04T10:27:58;7.18;;;1.25;;
69956;SDS011;57283;54.816;9.482;2022-11-04T10:30:26;5.47;;;1.53;;
69956;SDS011;57283;54.816;9.482;2022-11-04T10:32:59;5.10;;;1.40;;
69956;SDS011;57283;54.816;9.482;2022-11-04T10:35:34;8.52;;;1.40;;
69956;SDS011;57283;54.816;9.482;2022-11-04T10:38:15;6.65;;;1.25;;
69956;SDS011;57283;54.816;9.482;2022-11-04T10:40:47;4.53;;;1.25;;
69956;SDS011;57283;54.816;9.482;2022-11-04T10:43:21;6.57;;;1.33;;
69956;SDS011;57283;54.816;9.482;2022-11-04T10:45:57;5.30;;;1.17;;
69956;SDS011;57283;54.816;9.482;2022-11-04T10:48:33;5.55;;;1.10;;
69956;SDS011;57283;54.816;9.482;2022-11-04T10:51:06;8.07;;;1.67;;
69956;SDS011;57283;54.816;9.482;2022-11-04T10:53:34;4.70;;;1.27;;
69956;SDS011;57283;54.816;9.482;2022-11-04T10:56:03;6.40;;;1.27;;
69956;SDS011;57283;54.816;9.482;2022-11-04T10:58:41;6.07;;;1.10;;
69956;SDS011;57283;54.816;9.482;2022-11-04T11:01:22;5.57;;;1.20;;
69956;SDS011;57283;54.816;9.482;2022-11-04T11:03:53;5.88;;;1.10;;
69956;SDS011;57283;54.816;9.482;2022-11-04T11:06:23;5.80;;;1.50;;
69956;SDS011;57283;54.816;9.482;2022-11-04T11:08:53;4.57;;;1.13;;
69956;SDS011;57283;54.816;9.482;2022-11-04T11:11:34;6.32;;;1.38;;
69956;SDS011;57283;54.816;9.482;2022-11-04T11:14:09;5.13;;;1.40;;
69956;SDS011;57283;54.816;9.482;2022-11-04T11:16:42;7.00;;;1.45;;
69956;SDS011;57283;54.816;9.482;2022-11-04T11:19:12;7.63;;;1.42;;
69956;SDS011;57283;54.816;9.482;2022-11-04T11:21:43;4.53;;;1.33;;
69956;SDS011;57283;54.816;9.482;2022-11-04T11:24:14;4.10;;;1.25;;
69956;SDS011;57283;54.816;9.482;2022-11-04T11:26:45;9.25;;;1.50;;
69956;SDS011;57283;54.816;9.482;2022-11-04T11:29:19;3.53;;;1.30;;
69956;SDS011;57283;54.816;9.482;2022-11-04T11:31:50;5.47;;;1.70;;
69956;SDS011;57283;54.816;9.482;2022-11-04T11:34:20;3.57;;;1.10;;
69956;SDS011;57283;54.816;9.482;2022-11-04T11:36:52;3.92;;;1.23;;
69956;SDS011;57283;54.816;9.482;2022-11-04T11:39:22;4.25;;;1.63;;
69956;SDS011;57283;54.816;9.482;2022-11-04T11:41:55;2.92;;;1.33;;
69956;SDS011;57283;54.816;9.482;2022-11-04T11:44:26;4.97;;;1.40;;
69956;SDS011;57283;54.816;9.482;2022-11-04T11:46:59;3.50;;;1.17;;
69956;SDS011;57283;54.816;9.482;2022-11-04T11:49:29;4.20;;;1.33;;
69956;SDS011;57283;54.816;9.482;2022-11-04T11:54:53;5.78;;;2.40;;
69956;SDS011;57283;54.816;9.482;2022-11-04T11:57:30;4.50;;;1.48;;
69956;SDS011;57283;54.816;9.482;2022-11-04T12:00:07;7.47;;;2.13;;
69956;SDS011;57283;54.816;9.482;2022-11-04T12:03:01;4.55;;;1.30;;
69956;SDS011;57283;54.816;9.482;2022-11-04T12:05:39;5.47;;;1.17;;
69956;SDS011;57283;54.816;9.482;2022-11-04T12:08:42;4.45;;;0.98;;
69956;SDS011;57283;54.816;9.482;2022-11-04T12:11:42;4.45;;;0.90;;
69956;SDS011;57283;54.816;9.482;2022-11-04T12:14:21;3.93;;;0.70;;
69956;SDS011;57283;54.816;9.482;2022-11-04T12:17:01;4.15;;;1.00;;
69956;SDS011;57283;54.816;9.482;2022-11-04T12:19:41;4.28;;;0.80;;
69956;SDS011;57283;54.816;9.482;2022-11-04T12:22:23;4.65;;;0.90;;
69956;SDS011;57283;54.816;9.482;2022-11-04T12:25:02;8.90;;;3.33;;
69956;SDS011;57283;54.816;9.482;2022-11-04T12:27:45;6.63;;;1.53;;
69956;SDS011;57283;54.816;9.482;2022-11-04T12:30:18;3.83;;;2.08;;
69956;SDS011;57283;54.816;9.482;2022-11-04T12:33:02;4.30;;;1.60;;
69956;SDS011;57283;54.816;9.482;2022-11-04T12:35:41;4.80;;;1.20;;
69956;SDS011;57283;54.816;9.482;2022-11-04T12:38:28;4.00;;;1.00;;
69956;SDS011;57283;54.816;9.482;2022-11-04T12:41:17;4.23;;;1.20;;
69956;SDS011;57283;54.816;9.482;2022-11-04T12:44:17;5.45;;;1.50;;
69956;SDS011;57283;54.816;9.482;2022-11-04T12:46:56;4.43;;;1.42;;
69956;SDS011;57283;54.816;9.482;2022-11-04T12:49:44;4.85;;;1.70;;
69956;SDS011;57283;54.816;9.482;2022-11-04T12:52:23;5.03;;;1.90;;
69956;SDS011;57283;54.816;9.482;2022-11-04T12:55:05;4.17;;;1.57;;
69956;SDS011;57283;54.816;9.482;2022-11-04T12:57:48;4.05;;;1.40;;
69956;SDS011;57283;54.816;9.482;2022-11-04T13:00:23;4.28;;;1.55;;
69956;SDS011;57283;54.816;9.482;2022-11-04T13:02:55;4.22;;;1.50;;
69956;SDS011;57283;54.816;9.482;2022-11-04T13:05:32;3.95;;;1.30;;
69956;SDS011;57283;54.816;9.482;2022-11-04T13:08:09;4.13;;;1.30;;
69956;SDS011;57283;54.816;9.482;2022-11-04T13:10:42;6.43;;;1.45;;
69956;SDS011;57283;54.816;9.482;2022-11-04T13:13:15;8.77;;;1.75;;
69956;SDS011;57283;54.816;9.482;2022-11-04T13:15:48;3.88;;;1.38;;
69956;SDS011;57283;54.816;9.482;2022-11-04T13:18:20;4.82;;;1.27;;
69956;SDS011;57283;54.816;9.482;2022-11-04T13:20:54;6.77;;;1.10;;
69956;SDS011;57283;54.816;9.482;2022-11-04T13:23:31;4.00;;;1.05;;
69956;SDS011;57283;54.816;9.482;2022-11-04T13:26:08;3.15;;;0.80;;
69956;SDS011;57283;54.816;9.482;2022-11-04T13:28:39;5.40;;;1.10;;
69956;SDS011;57283;54.816;9.482;2022-11-04T13:31:10;5.55;;;1.02;;
69956;SDS011;57283;54.816;9.482;2022-11-04T13:33:46;3.83;;;0.80;;
69956;SDS011;57283;54.816;9.482;2022-11-04T13:36:23;4.38;;;1.38;;
69956;SDS011;57283;54.816;9.482;2022-11-04T13:39:00;6.00;;;1.17;;
69956;SDS011;57283;54.816;9.482;2022-11-04T13:44:37;6.00;;;1.25;;
69956;SDS011;57283;54.816;9.482;2022-11-04T13:47:12;8.70;;;1.13;;
69956;SDS011;57283;54.816;9.482;2022-11-04T13:49:48;4.80;;;0.80;;
69956;SDS011;57283;54.816;9.482;2022-11-04T13:52:18;5.10;;;1.10;;
69956;SDS011;57283;54.816;9.482;2022-11-04T13:54:51;4.18;;;0.82;;
69956;SDS011;57283;54.816;9.482;2022-11-04T13:57:22;3.72;;;0.80;;
69956;SDS011;57283;54.816;9.482;2022-11-04T14:00:04;5.40;;;1.07;;
69956;SDS011;57283;54.816;9.482;2022-11-04T14:02:41;7.28;;;1.20;;
69956;SDS011;57283;54.816;9.482;2022-11-04T14:08:13;5.97;;;1.00;;
69956;SDS011;57283;54.816;9.482;2022-11-04T14:10:42;4.75;;;0.90;;
69956;SDS011;57283;54.816;9.482;2022-11-04T14:16:37;5.03;;;1.10;;
69956;SDS011;57283;54.816;9.482;2022-11-04T14:22:14;5.28;;;1.10;;
69956;SDS011;57283;54.816;9.482;2022-11-04T14:24:45;4.07;;;0.90;;
69956;SDS011;57283;54.816;9.482;2022-11-04T14:27:25;6.83;;;1.37;;
69956;SDS011;57283;54.816;9.482;2022-11-04T14:29:57;4.40;;;0.98;;
69956;SDS011;57283;54.816;9.482;2022-11-04T14:32:29;7.82;;;1.15;;
69956;SDS011;57283;54.816;9.482;2022-11-04T14:35:00;6.45;;;1.05;;
69956;SDS011;57283;54.816;9.482;2022-11-04T14:37:31;5.40;;;1.10;;
69956;SDS011;57283;54.816;9.482;2022-11-04T14:40:03;6.47;;;1.27;;
69956;SDS011;57283;54.816;9.482;2022-11-04T14:42:47;5.75;;;1.10;;
69956;SDS011;57283;54.816;9.482;2022-11-04T14:45:19;3.33;;;0.90;;
69956;SDS011;57283;54.816;9.482;2022-11-04T14:47:50;6.70;;;1.40;;
69956;SDS011;57283;54.816;9.482;2022-11-04T14:50:22;5.47;;;1.23;;
69956;SDS011;57283;54.816;9.482;2022-11-04T14:52:53;4.10;;;1.30;;
69956;SDS011;57283;54.816;9.482;2022-11-04T14:55:25;9.02;;;1.48;;
69956;SDS011;57283;54.816;9.482;2022-11-04T14:57:56;5.53;;;1.10;;
69956;SDS011;57283;54.816;9.482;2022-11-04T15:00:27;4.85;;;1.10;;
69956;SDS011;57283;54.816;9.482;2022-11-04T15:02:58;7.30;;;1.13;;
69956;SDS011;57283;54.816;9.482;2022-11-04T15:05:31;5.80;;;1.13;;
69956;SDS011;57283;54.816;9.482;2022-11-04T15:08:02;4.70;;;1.10;;
69956;SDS011;57283;54.816;9.482;2022-11-04T15:10:49;6.75;;;1.33;;
69956;SDS011;57283;54.816;9.482;2022-11-04T15:13:18;4.80;;;1.00;;
69956;SDS011;57283;54.816;9.482;2022-11-04T15:15:46;6.60;;;1.40;;
69956;SDS011;57283;54.816;9.482;2022-11-04T15:18:18;4.73;;;0.80;;
69956;SDS011;57283;54.816;9.482;2022-11-04T15:20:54;8.27;;;1.50;;
69956;SDS011;57283;54.816;9.482;2022-11-04T15:23:25;9.77;;;1.20;;
69956;SDS011;57283;54.816;9.482;2022-11-04T15:25:57;4.63;;;0.90;;
69956;SDS011;57283;54.816;9.482;2022-11-04T15:28:26;9.35;;;1.10;;
69956;SDS011;57283;54.816;9.482;2022-11-04T15:31:00;7.67;;;1.30;;
69956;SDS011;57283;54.816;9.482;2022-11-04T15:33:31;5.57;;;1.30;;
69956;SDS011;57283;54.816;9.482;2022-11-04T15:36:05;5.70;;;1.33;;
69956;SDS011;57283;54.816;9.482;2022-11-04T15:38:37;3.47;;;0.70;;
69956;SDS011;57283;54.816;9.482;2022-11-04T15:41:09;4.63;;;1.08;;